Time;durP1;ratioP1;P1;durP2;ratioP2;P2;SDS_P1;SDS_P2;PMS_P1;PMS_P2;Temp;Humidity;BMP_temperature;BMP_pressure;BME280_temperature;BME280_humidity;BME280_pressure;Samples;Min_cycle;Max_cycle;Signal;HPM_P1;HPM_P2
2024/01/14 00:01:22;;;;;;;14.30;7.03;;;;;;;;;;5129287;27;20409;-69
2024/01/14 00:03:49;;;;;;;15.60;7.88;;;;;;;;;;5129874;28;20050;-69
2024/01/14 00:06:17;;;;;;;14.88;7.53;;;;;;;;;;5129952;28;20078;-69
2024/01/14 00:08:43;;;;;;;17.80;7.63;;;;;;;;;;5129850;28;20080;-69
2024/01/14 00:11:10;;;;;;;17.52;7.95;;;;;;;;;;5129369;28;20099;-69
2024/01/14 00:13:37;;;;;;;18.92;7.82;;;;;;;;;;5130136;28;20505;-70
2024/01/14 00:16:04;;;;;;;17.33;7.70;;;;;;;;;;5129625;28;20043;-69
2024/01/14 00:18:30;;;;;;;16.55;7.13;;;;;;;;;;5111351;28;20051;-69
2024/01/14 00:20:57;;;;;;;16.52;7.35;;;;;;;;;;5129322;28;20536;-69
2024/01/14 00:23:24;;;;;;;16.83;7.80;;;;;;;;;;5129723;28;20043;-70
2024/01/14 00:25:50;;;;;;;15.15;7.47;;;;;;;;;;5129583;28;20042;-69
2024/01/14 00:28:17;;;;;;;16.85;7.07;;;;;;;;;;5129524;28;20620;-68
2024/01/14 00:30:44;;;;;;;14.63;6.88;;;;;;;;;;5129346;28;20414;-70
2024/01/14 00:33:11;;;;;;;14.35;7.28;;;;;;;;;;5129526;28;20483;-69
2024/01/14 00:35:38;;;;;;;15.32;7.30;;;;;;;;;;5129674;28;20050;-69
2024/01/14 00:38:08;;;;;;;14.43;6.55;;;;;;;;;;5129591;28;20050;-70
2024/01/14 00:40:35;;;;;;;14.63;6.57;;;;;;;;;;5128926;28;20046;-68
2024/01/14 00:43:03;;;;;;;13.70;6.88;;;;;;;;;;5129666;28;20116;-70
2024/01/14 00:45:29;;;;;;;14.00;6.55;;;;;;;;;;5129335;28;20043;-70
2024/01/14 00:47:56;;;;;;;15.32;6.97;;;;;;;;;;5129372;28;20078;-70
2024/01/14 00:50:23;;;;;;;13.85;6.75;;;;;;;;;;5129380;28;20043;-68
2024/01/14 00:52:50;;;;;;;14.60;6.80;;;;;;;;;;5128999;28;20442;-70
2024/01/14 00:55:17;;;;;;;13.63;6.72;;;;;;;;;;5128968;27;20418;-69
2024/01/14 00:57:43;;;;;;;15.68;7.18;;;;;;;;;;5129350;28;20043;-69
2024/01/14 01:00:10;;;;;;;14.55;6.90;;;;;;;;;;5129006;28;20092;-70
2024/01/14 01:02:37;;;;;;;15.25;7.57;;;;;;;;;;5128844;28;20094;-69
2024/01/14 01:05:04;;;;;;;16.60;7.28;;;;;;;;;;5129556;28;20047;-70
2024/01/14 01:07:31;;;;;;;16.92;7.53;;;;;;;;;;5129532;28;20101;-70
2024/01/14 01:09:57;;;;;;;17.42;7.35;;;;;;;;;;5129494;27;20047;-69
2024/01/14 01:12:24;;;;;;;14.95;7.47;;;;;;;;;;5132696;27;20046;-69
2024/01/14 01:14:51;;;;;;;15.38;6.88;;;;;;;;;;5132540;27;20054;-70
2024/01/14 01:17:18;;;;;;;14.63;7.03;;;;;;;;;;5132904;27;20043;-69
2024/01/14 01:19:46;;;;;;;15.15;7.32;;;;;;;;;;5132428;27;20445;-69
2024/01/14 01:22:13;;;;;;;14.85;7.32;;;;;;;;;;5132742;27;20055;-70
2024/01/14 01:24:39;;;;;;;14.13;7.15;;;;;;;;;;5132450;27;20058;-69
2024/01/14 01:27:06;;;;;;;14.93;7.47;;;;;;;;;;5132836;27;20126;-70
2024/01/14 01:29:33;;;;;;;14.43;6.88;;;;;;;;;;5132515;27;20063;-69
2024/01/14 01:32:00;;;;;;;15.50;7.47;;;;;;;;;;5132279;27;20361;-69
2024/01/14 01:34:34;;;;;;;16.00;7.38;;;;;;;;;;5132540;27;20415;-69
2024/01/14 01:37:02;;;;;;;13.80;6.88;;;;;;;;;;5132253;27;20039;-69
2024/01/14 01:39:29;;;;;;;15.07;6.78;;;;;;;;;;5132114;27;20070;-69
2024/01/14 01:41:55;;;;;;;14.38;6.38;;;;;;;;;;5132035;27;20051;-69
2024/01/14 01:44:23;;;;;;;13.68;6.18;;;;;;;;;;5132673;27;20047;-68
2024/01/14 01:46:50;;;;;;;15.43;6.90;;;;;;;;;;5132023;27;20402;-68
2024/01/14 01:49:17;;;;;;;14.93;6.47;;;;;;;;;;5132630;27;20055;-69
2024/01/14 01:51:49;;;;;;;13.15;5.78;;;;;;;;;;5132201;27;20134;-70
2024/01/14 01:54:26;;;;;;;14.80;6.70;;;;;;;;;;5131585;27;20138;-70
2024/01/14 01:56:54;;;;;;;15.20;6.57;;;;;;;;;;5132133;27;20043;-70
2024/01/14 01:59:21;;;;;;;12.35;5.70;;;;;;;;;;5132112;27;20088;-69
2024/01/14 02:01:48;;;;;;;11.98;5.93;;;;;;;;;;5131962;27;20059;-70
2024/01/14 02:04:16;;;;;;;14.73;6.25;;;;;;;;;;5132263;27;20047;-70
2024/01/14 02:06:43;;;;;;;14.85;6.82;;;;;;;;;;5131968;27;20471;-70
2024/01/14 02:09:10;;;;;;;11.57;5.57;;;;;;;;;;5131466;27;20214;-70
2024/01/14 02:11:38;;;;;;;11.18;5.22;;;;;;;;;;5131857;27;20047;-70
2024/01/14 02:14:05;;;;;;;11.68;5.53;;;;;;;;;;5131828;27;20050;-69
2024/01/14 02:16:32;;;;;;;11.25;5.32;;;;;;;;;;5131742;27;20448;-69
2024/01/14 02:18:58;;;;;;;11.35;5.72;;;;;;;;;;5131689;27;20050;-69
2024/01/14 02:21:32;;;;;;;10.43;5.30;;;;;;;;;;5130333;27;20099;-69
2024/01/14 02:24:29;;;;;;;11.45;5.22;;;;;;;;;;5131436;27;20047;-69
2024/01/14 02:26:56;;;;;;;10.52;5.18;;;;;;;;;;5123279;27;20108;-69
2024/01/14 02:29:24;;;;;;;11.32;5.53;;;;;;;;;;5131458;27;20043;-69
2024/01/14 02:31:50;;;;;;;11.18;5.38;;;;;;;;;;5131446;27;20039;-70
2024/01/14 02:34:17;;;;;;;12.77;5.68;;;;;;;;;;5131566;27;20388;-69
2024/01/14 02:36:44;;;;;;;12.98;5.20;;;;;;;;;;5131425;27;20420;-69
2024/01/14 02:39:11;;;;;;;9.68;4.80;;;;;;;;;;5112134;27;20043;-68
2024/01/14 02:41:38;;;;;;;11.80;5.43;;;;;;;;;;5131016;27;20039;-68
2024/01/14 02:44:05;;;;;;;10.68;5.28;;;;;;;;;;5131083;27;20050;-69
2024/01/14 02:46:31;;;;;;;11.23;5.32;;;;;;;;;;5131279;27;20126;-68
2024/01/14 02:48:58;;;;;;;10.07;5.15;;;;;;;;;;5112973;27;20140;-69
2024/01/14 02:51:25;;;;;;;9.50;4.65;;;;;;;;;;5112669;27;20126;-70
2024/01/14 02:53:52;;;;;;;12.25;5.38;;;;;;;;;;5130399;27;20513;-70
2024/01/14 02:56:19;;;;;;;10.25;5.35;;;;;;;;;;5130587;27;20130;-70
2024/01/14 02:58:45;;;;;;;11.90;5.55;;;;;;;;;;5130637;27;20050;-70
2024/01/14 03:01:12;;;;;;;11.45;5.53;;;;;;;;;;5131058;27;20044;-70
2024/01/14 03:03:39;;;;;;;10.38;5.07;;;;;;;;;;5130274;27;20066;-69
2024/01/14 03:06:07;;;;;;;10.25;5.15;;;;;;;;;;5130616;27;20043;-70
2024/01/14 03:08:34;;;;;;;10.27;4.95;;;;;;;;;;5130796;27;20047;-70
2024/01/14 03:11:02;;;;;;;10.48;5.28;;;;;;;;;;5129982;27;20509;-70
2024/01/14 03:13:28;;;;;;;12.35;5.10;;;;;;;;;;5130510;27;20039;-70
2024/01/14 03:15:55;;;;;;;10.23;5.03;;;;;;;;;;5130641;27;20144;-69
2024/01/14 03:18:23;;;;;;;11.25;4.57;;;;;;;;;;5130423;27;20123;-70
2024/01/14 03:20:50;;;;;;;9.65;4.53;;;;;;;;;;5130318;27;20054;-70
2024/01/14 03:23:17;;;;;;;8.98;4.95;;;;;;;;;;5130156;27;20079;-70
2024/01/14 03:25:43;;;;;;;11.15;5.03;;;;;;;;;;5130088;27;20135;-70
2024/01/14 03:28:10;;;;;;;9.77;4.53;;;;;;;;;;5130550;27;20054;-70
2024/01/14 03:30:37;;;;;;;9.35;4.43;;;;;;;;;;5130580;27;20043;-69
2024/01/14 03:33:03;;;;;;;10.05;5.22;;;;;;;;;;5129889;27;20053;-69
2024/01/14 03:35:30;;;;;;;9.05;4.18;;;;;;;;;;5130530;27;20047;-70
2024/01/14 03:37:57;;;;;;;8.77;4.40;;;;;;;;;;5130175;27;20039;-69
2024/01/14 03:40:24;;;;;;;8.63;4.35;;;;;;;;;;5129814;27;20050;-70
2024/01/14 03:42:50;;;;;;;10.07;4.65;;;;;;;;;;5129473;27;20051;-70
2024/01/14 03:45:17;;;;;;;7.63;4.35;;;;;;;;;;5130335;27;20047;-68
2024/01/14 03:47:44;;;;;;;10.15;4.22;;;;;;;;;;5129981;27;20051;-70
2024/01/14 03:50:11;;;;;;;9.30;4.38;;;;;;;;;;5130276;27;20043;-69
2024/01/14 03:52:37;;;;;;;10.85;5.00;;;;;;;;;;5129916;27;20100;-70
2024/01/14 03:55:05;;;;;;;10.90;4.82;;;;;;;;;;5129316;27;20051;-70
2024/01/14 03:57:32;;;;;;;10.48;4.90;;;;;;;;;;5130053;27;20118;-70
2024/01/14 03:59:59;;;;;;;10.18;5.18;;;;;;;;;;5129563;27;20123;-69
2024/01/14 04:02:26;;;;;;;9.57;4.95;;;;;;;;;;5129911;27;20043;-70
2024/01/14 04:04:52;;;;;;;10.52;4.75;;;;;;;;;;5129870;27;20047;-69
2024/01/14 04:07:19;;;;;;;10.10;5.00;;;;;;;;;;5129803;28;20122;-69
2024/01/14 04:09:46;;;;;;;10.20;5.13;;;;;;;;;;5129082;28;20051;-69
2024/01/14 04:12:13;;;;;;;12.15;5.57;;;;;;;;;;5129910;28;20838;-70
2024/01/14 04:14:39;;;;;;;9.25;4.70;;;;;;;;;;5129354;28;20047;-69
2024/01/14 04:17:06;;;;;;;10.85;5.07;;;;;;;;;;5129674;28;20047;-69
2024/01/14 04:19:33;;;;;;;10.52;5.43;;;;;;;;;;5129841;28;20043;-69
2024/01/14 04:22:00;;;;;;;13.82;6.03;;;;;;;;;;5129840;28;20122;-69
2024/01/14 04:24:26;;;;;;;13.05;5.72;;;;;;;;;;5129410;28;20047;-68
2024/01/14 04:26:53;;;;;;;12.10;5.78;;;;;;;;;;5129787;28;20054;-70
2024/01/14 04:29:20;;;;;;;12.10;5.85;;;;;;;;;;5129312;27;20514;-69
2024/01/14 04:31:46;;;;;;;11.90;5.63;;;;;;;;;;5129715;27;20047;-69
2024/01/14 04:34:13;;;;;;;12.63;5.95;;;;;;;;;;5129362;28;20111;-69
2024/01/14 04:36:40;;;;;;;13.20;5.60;;;;;;;;;;5129275;28;20383;-70
2024/01/14 04:39:07;;;;;;;13.45;5.55;;;;;;;;;;5129187;28;20113;-69
2024/01/14 04:41:34;;;;;;;10.70;5.57;;;;;;;;;;5129359;28;20494;-70
2024/01/14 04:44:02;;;;;;;11.10;5.18;;;;;;;;;;5111163;27;20054;-69
2024/01/14 04:46:28;;;;;;;11.88;5.68;;;;;;;;;;5132878;27;20075;-70
2024/01/14 04:48:55;;;;;;;11.30;5.38;;;;;;;;;;5133330;27;20409;-69
2024/01/14 04:51:22;;;;;;;11.93;5.72;;;;;;;;;;5133304;27;20043;-70
2024/01/14 04:53:49;;;;;;;11.10;5.30;;;;;;;;;;5132451;27;20047;-70
2024/01/14 04:56:16;;;;;;;13.30;5.93;;;;;;;;;;5133206;27;20074;-69
2024/01/14 04:58:42;;;;;;;12.23;6.30;;;;;;;;;;5133383;27;20071;-70
2024/01/14 05:01:09;;;;;;;10.20;5.10;;;;;;;;;;5133413;27;20047;-69
2024/01/14 05:03:36;;;;;;;10.48;5.28;;;;;;;;;;5132868;27;20154;-69
2024/01/14 05:06:03;;;;;;;11.48;5.07;;;;;;;;;;5133036;27;20047;-69
2024/01/14 05:08:30;;;;;;;11.77;5.20;;;;;;;;;;5132929;27;20047;-69
2024/01/14 05:10:58;;;;;;;9.52;4.45;;;;;;;;;;5132371;27;20055;-69
2024/01/14 05:13:25;;;;;;;8.98;4.55;;;;;;;;;;5132771;27;20047;-69
2024/01/14 05:15:51;;;;;;;10.48;4.90;;;;;;;;;;5132916;27;20138;-69
2024/01/14 05:18:18;;;;;;;10.52;4.85;;;;;;;;;;5132559;27;20126;-70
2024/01/14 05:20:45;;;;;;;10.15;4.95;;;;;;;;;;5132643;27;20061;-69
2024/01/14 05:23:11;;;;;;;10.10;4.60;;;;;;;;;;5132779;27;20079;-70
2024/01/14 05:25:38;;;;;;;8.20;4.18;;;;;;;;;;5132158;27;20050;-70
2024/01/14 05:28:05;;;;;;;8.85;4.30;;;;;;;;;;5133121;27;20108;-69
2024/01/14 05:30:32;;;;;;;8.90;4.28;;;;;;;;;;5133139;27;20411;-70
2024/01/14 05:32:59;;;;;;;9.13;4.40;;;;;;;;;;5133621;27;20054;-70
2024/01/14 05:35:26;;;;;;;8.80;4.03;;;;;;;;;;5132496;27;20120;-69
2024/01/14 05:37:53;;;;;;;9.43;4.20;;;;;;;;;;5132671;27;20043;-70
2024/01/14 05:40:19;;;;;;;7.50;3.70;;;;;;;;;;5132093;27;20039;-70
2024/01/14 05:42:46;;;;;;;7.72;4.07;;;;;;;;;;5132416;27;20044;-70
2024/01/14 05:45:13;;;;;;;7.07;3.65;;;;;;;;;;5132166;27;20043;-69
2024/01/14 05:47:40;;;;;;;7.70;3.92;;;;;;;;;;5132271;27;20043;-69
2024/01/14 05:50:08;;;;;;;8.05;3.80;;;;;;;;;;5132364;27;20047;-70
2024/01/14 05:52:35;;;;;;;8.50;3.75;;;;;;;;;;5132168;27;20043;-70
2024/01/14 05:55:02;;;;;;;8.32;3.95;;;;;;;;;;5131698;27;20043;-69
2024/01/14 05:57:30;;;;;;;8.20;3.90;;;;;;;;;;5132038;27;20077;-70
2024/01/14 05:59:57;;;;;;;8.77;4.00;;;;;;;;;;5131926;27;20073;-70
2024/01/14 06:02:24;;;;;;;9.63;3.75;;;;;;;;;;5131895;27;20104;-69
2024/01/14 06:04:51;;;;;;;8.20;4.05;;;;;;;;;;5131734;27;20039;-70
2024/01/14 06:07:18;;;;;;;8.38;4.00;;;;;;;;;;5131751;27;20123;-69
2024/01/14 06:09:45;;;;;;;7.72;3.60;;;;;;;;;;5131436;27;20054;-70
2024/01/14 06:12:14;;;;;;;10.77;4.70;;;;;;;;;;5132015;27;20130;-70
2024/01/14 06:14:41;;;;;;;7.40;3.88;;;;;;;;;;5131228;27;20097;-69
2024/01/14 06:17:08;;;;;;;7.75;3.72;;;;;;;;;;5131418;27;20053;-69
2024/01/14 06:19:35;;;;;;;8.05;4.15;;;;;;;;;;5131570;27;20039;-69
2024/01/14 06:22:03;;;;;;;6.53;3.50;;;;;;;;;;5131729;27;20054;-69
2024/01/14 06:24:29;;;;;;;9.07;4.00;;;;;;;;;;5131180;27;20083;-69
2024/01/14 06:26:56;;;;;;;8.43;3.80;;;;;;;;;;5131777;27;20043;-69
2024/01/14 06:29:24;;;;;;;8.05;3.85;;;;;;;;;;5131500;27;20049;-69
2024/01/14 06:31:50;;;;;;;8.70;3.78;;;;;;;;;;5113163;27;20043;-70
2024/01/14 06:34:17;;;;;;;7.97;3.83;;;;;;;;;;5130935;27;20448;-69
2024/01/14 06:36:44;;;;;;;8.15;3.47;;;;;;;;;;5131405;27;20043;-69
2024/01/14 06:39:11;;;;;;;8.75;4.10;;;;;;;;;;5130726;27;20130;-69
2024/01/14 06:41:38;;;;;;;7.72;3.58;;;;;;;;;;5131163;27;20043;-69
2024/01/14 06:44:04;;;;;;;6.28;3.30;;;;;;;;;;5131116;27;20051;-69
2024/01/14 06:46:31;;;;;;;6.40;3.13;;;;;;;;;;5131093;27;20039;-69
2024/01/14 06:48:58;;;;;;;7.10;3.63;;;;;;;;;;5131125;27;20101;-69
2024/01/14 06:51:25;;;;;;;8.48;3.58;;;;;;;;;;5131354;27;20043;-69
2024/01/14 06:53:52;;;;;;;7.38;3.72;;;;;;;;;;5130318;27;20061;-69
2024/01/14 06:56:19;;;;;;;7.28;3.60;;;;;;;;;;5130576;27;20046;-69
2024/01/14 06:58:49;;;;;;;7.32;3.67;;;;;;;;;;5130787;27;20051;-69
2024/01/14 07:01:16;;;;;;;7.23;3.60;;;;;;;;;;5130704;27;20130;-69
2024/01/14 07:03:43;;;;;;;5.07;3.00;;;;;;;;;;5130626;27;20361;-70
2024/01/14 07:06:10;;;;;;;6.05;3.08;;;;;;;;;;5131068;27;20047;-69
2024/01/14 07:08:37;;;;;;;6.85;3.60;;;;;;;;;;5129984;27;20047;-70
2024/01/14 07:11:05;;;;;;;6.75;3.40;;;;;;;;;;5130254;27;20146;-69
2024/01/14 07:13:32;;;;;;;5.43;2.95;;;;;;;;;;5130503;27;20099;-69
2024/01/14 07:15:59;;;;;;;5.30;2.88;;;;;;;;;;5129921;27;20050;-69
2024/01/14 07:18:26;;;;;;;5.88;3.25;;;;;;;;;;5130515;27;20122;-69
2024/01/14 07:20:53;;;;;;;5.18;2.88;;;;;;;;;;5130629;27;20046;-69
2024/01/14 07:23:19;;;;;;;6.30;3.22;;;;;;;;;;5130334;27;20039;-69
2024/01/14 07:26:17;;;;;;;5.68;2.88;;;;;;;;;;5130425;27;20139;-69
2024/01/14 07:28:51;;;;;;;5.33;2.57;;;;;;;;;;5130607;27;20039;-69
2024/01/14 07:31:20;;;;;;;4.72;2.65;;;;;;;;;;5130175;27;20281;-69
2024/01/14 07:33:52;;;;;;;6.55;2.92;;;;;;;;;;5130018;27;20613;-69
2024/01/14 07:36:20;;;;;;;5.30;2.75;;;;;;;;;;5129789;27;20039;-70
2024/01/14 07:38:47;;;;;;;4.82;2.65;;;;;;;;;;5129547;27;20418;-69
2024/01/14 07:41:15;;;;;;;5.40;2.80;;;;;;;;;;5130389;27;20047;-69
2024/01/14 07:43:43;;;;;;;5.60;2.38;;;;;;;;;;5129753;27;20051;-69
2024/01/14 07:46:11;;;;;;;4.10;2.28;;;;;;;;;;5130303;27;20139;-69
2024/01/14 07:48:38;;;;;;;4.47;2.67;;;;;;;;;;5130234;27;20043;-69
2024/01/14 07:51:05;;;;;;;5.60;3.10;;;;;;;;;;5129839;27;20067;-69
2024/01/14 07:53:32;;;;;;;4.60;2.78;;;;;;;;;;5129562;27;20426;-69
2024/01/14 07:56:00;;;;;;;4.80;2.67;;;;;;;;;;5129618;27;20043;-69
2024/01/14 07:58:27;;;;;;;4.80;2.70;;;;;;;;;;5129950;27;20047;-69
2024/01/14 08:00:53;;;;;;;5.25;2.72;;;;;;;;;;5130143;27;20050;-70
2024/01/14 08:03:29;;;;;;;7.43;3.40;;;;;;;;;;5129777;27;20054;-70
2024/01/14 08:05:57;;;;;;;5.47;3.10;;;;;;;;;;5129642;27;20690;-70
2024/01/14 08:08:24;;;;;;;5.85;3.05;;;;;;;;;;5129972;28;20043;-69
2024/01/14 08:10:51;;;;;;;5.90;2.78;;;;;;;;;;5129160;28;20407;-69
2024/01/14 08:13:19;;;;;;;5.70;2.90;;;;;;;;;;5130152;28;20050;-69
2024/01/14 08:15:47;;;;;;;5.03;2.50;;;;;;;;;;5129361;28;20118;-69
2024/01/14 08:18:27;;;;;;;5.00;2.72;;;;;;;;;;5129606;27;20453;-69
2024/01/14 08:20:55;;;;;;;4.78;2.75;;;;;;;;;;5132518;27;20050;-69
2024/01/14 08:23:21;;;;;;;5.22;2.72;;;;;;;;;;5134335;27;20043;-69
2024/01/14 08:25:48;;;;;;;4.65;2.63;;;;;;;;;;5133500;27;20066;-68
2024/01/14 08:28:15;;;;;;;6.32;3.15;;;;;;;;;;5134370;27;20141;-69
2024/01/14 08:30:41;;;;;;;5.22;2.83;;;;;;;;;;5134617;27;20047;-70
2024/01/14 08:33:08;;;;;;;4.47;2.45;;;;;;;;;;5133771;27;20400;-70
2024/01/14 08:35:35;;;;;;;6.43;3.40;;;;;;;;;;5133288;27;20047;-70
2024/01/14 08:38:02;;;;;;;6.60;3.80;;;;;;;;;;5133810;27;20060;-70
2024/01/14 08:40:29;;;;;;;5.78;3.55;;;;;;;;;;5133252;27;20043;-70
2024/01/14 08:42:55;;;;;;;7.07;3.88;;;;;;;;;;5133318;27;20086;-69
2024/01/14 08:45:22;;;;;;;6.53;3.47;;;;;;;;;;5133166;27;20047;-69
2024/01/14 08:47:49;;;;;;;5.80;3.25;;;;;;;;;;5133812;27;20035;-69
2024/01/14 08:50:18;;;;;;;6.60;3.83;;;;;;;;;;5133243;27;20046;-69
2024/01/14 08:52:45;;;;;;;6.18;3.25;;;;;;;;;;5133289;27;20085;-69
2024/01/14 08:55:11;;;;;;;6.07;3.63;;;;;;;;;;5132399;27;20063;-70
2024/01/14 08:57:39;;;;;;;7.15;3.95;;;;;;;;;;5133441;27;20049;-69
2024/01/14 09:00:06;;;;;;;5.60;3.20;;;;;;;;;;5133052;27;20043;-69
2024/01/14 09:02:33;;;;;;;10.18;4.63;;;;;;;;;;5133469;27;20043;-70
2024/01/14 09:05:00;;;;;;;6.60;3.50;;;;;;;;;;5132870;27;20413;-69
2024/01/14 09:07:28;;;;;;;6.40;3.38;;;;;;;;;;5133303;27;20524;-70
2024/01/14 09:09:55;;;;;;;6.55;3.22;;;;;;;;;;5132387;27;20058;-70
2024/01/14 09:12:22;;;;;;;4.53;2.78;;;;;;;;;;5132823;27;20495;-70
2024/01/14 09:14:49;;;;;;;5.30;3.00;;;;;;;;;;5132874;27;20077;-69
2024/01/14 09:17:16;;;;;;;4.28;2.70;;;;;;;;;;5132813;27;20055;-70
2024/01/14 09:19:44;;;;;;;5.32;3.10;;;;;;;;;;5132853;27;20550;-69
2024/01/14 09:22:11;;;;;;;5.40;2.92;;;;;;;;;;5133016;27;20059;-69
2024/01/14 09:24:43;;;;;;;6.10;3.22;;;;;;;;;;5132128;27;20051;-69
2024/01/14 09:27:10;;;;;;;5.32;2.72;;;;;;;;;;5132590;27;20585;-69
2024/01/14 09:29:37;;;;;;;4.45;2.72;;;;;;;;;;5132566;27;20111;-69
2024/01/14 09:32:04;;;;;;;4.25;2.67;;;;;;;;;;5131885;27;20043;-69
2024/01/14 09:34:31;;;;;;;4.95;2.80;;;;;;;;;;5131947;27;20096;-69
2024/01/14 09:36:58;;;;;;;5.75;3.10;;;;;;;;;;5132571;27;20039;-69
2024/01/14 09:39:25;;;;;;;5.72;3.00;;;;;;;;;;5132251;27;20047;-69
2024/01/14 09:42:06;;;;;;;3.85;2.55;;;;;;;;;;5132547;27;20126;-68
2024/01/14 09:44:34;;;;;;;5.20;2.90;;;;;;;;;;5132256;27;20082;-68
2024/01/14 09:47:02;;;;;;;4.88;2.65;;;;;;;;;;5132531;27;20123;-68
2024/01/14 09:49:29;;;;;;;5.32;2.83;;;;;;;;;;5113934;27;20055;-69
2024/01/14 09:51:56;;;;;;;5.65;3.20;;;;;;;;;;5132005;27;20074;-70
2024/01/14 09:54:23;;;;;;;5.45;3.20;;;;;;;;;;5131491;27;20697;-69
2024/01/14 09:56:52;;;;;;;4.72;2.92;;;;;;;;;;5131875;27;20130;-69
2024/01/14 09:59:21;;;;;;;9.50;4.32;;;;;;;;;;5132382;27;20051;-69
2024/01/14 10:01:50;;;;;;;5.80;3.33;;;;;;;;;;5132141;27;20580;-69
2024/01/14 10:04:17;;;;;;;8.82;4.70;;;;;;;;;;5132180;27;20120;-69
2024/01/14 10:06:44;;;;;;;7.47;4.07;;;;;;;;;;5131389;27;20126;-69
2024/01/14 10:09:11;;;;;;;8.52;4.40;;;;;;;;;;5131610;27;20055;-68
2024/01/14 10:11:38;;;;;;;7.38;3.80;;;;;;;;;;5131470;27;20054;-68
2024/01/14 10:14:04;;;;;;;11.30;4.30;;;;;;;;;;5131746;27;20047;-70
2024/01/14 10:16:38;;;;;;;7.35;3.92;;;;;;;;;;5131553;27;20122;-70
2024/01/14 10:19:21;;;;;;;7.88;4.15;;;;;;;;;;5131875;27;20047;-70
2024/01/14 10:21:48;;;;;;;6.90;3.97;;;;;;;;;;5113523;27;20380;-69
2024/01/14 10:24:34;;;;;;;7.70;4.28;;;;;;;;;;5130949;27;20150;-69
2024/01/14 10:27:02;;;;;;;10.45;4.65;;;;;;;;;;5131100;27;20387;-69
2024/01/14 10:29:30;;;;;;;5.93;3.85;;;;;;;;;;5131014;27;20564;-70
2024/01/14 10:31:56;;;;;;;7.30;3.92;;;;;;;;;;5131121;27;20082;-69
2024/01/14 10:34:24;;;;;;;6.65;3.53;;;;;;;;;;5131466;27;20047;-70
2024/01/14 10:36:59;;;;;;;7.13;3.97;;;;;;;;;;5130923;27;20126;-70
2024/01/14 10:39:31;;;;;;;7.18;4.10;;;;;;;;;;5131064;27;20039;-70
2024/01/14 10:41:59;;;;;;;7.63;3.92;;;;;;;;;;5131508;27;20054;-70
2024/01/14 10:44:26;;;;;;;8.45;4.03;;;;;;;;;;5131144;27;20078;-70
2024/01/14 10:46:54;;;;;;;9.20;3.80;;;;;;;;;;5131047;27;20124;-70
2024/01/14 10:49:24;;;;;;;7.75;3.85;;;;;;;;;;5130910;27;20126;-70
2024/01/14 10:52:07;;;;;;;;;;;;;;;;;;5131473;27;20051;-70
2024/01/14 10:55:04;;;;;;;7.00;3.67;;;;;;;;;;5130407;27;20021;-69
2024/01/14 10:57:35;;;;;;;6.72;3.58;;;;;;;;;;5099306;27;20051;-70
2024/01/14 11:00:05;;;;;;;7.47;3.50;;;;;;;;;;5131242;27;20134;-69
2024/01/14 11:02:33;;;;;;;6.13;3.58;;;;;;;;;;5130933;27;20078;-71
2024/01/14 11:05:00;;;;;;;6.20;3.60;;;;;;;;;;5130759;27;20049;-69
2024/01/14 11:07:28;;;;;;;6.72;3.70;;;;;;;;;;5130506;27;20039;-71
2024/01/14 11:09:56;;;;;;;6.88;3.50;;;;;;;;;;5111431;27;20051;-69
2024/01/14 11:12:31;;;;;;;5.05;3.20;;;;;;;;;;5130645;27;20647;-70
2024/01/14 11:15:13;;;;;;;8.65;4.00;;;;;;;;;;5130707;27;20043;-70
2024/01/14 11:17:43;;;;;;;6.18;3.47;;;;;;;;;;5130602;27;20043;-71
2024/01/14 11:20:19;;;;;;;9.93;3.97;;;;;;;;;;5130696;27;20053;-70
2024/01/14 11:22:46;;;;;;;5.65;3.67;;;;;;;;;;5130519;27;20051;-70
2024/01/14 11:25:22;;;;;;;7.30;3.58;;;;;;;;;;5130111;27;20047;-70
2024/01/14 11:27:53;;;;;;;6.15;2.97;;;;;;;;;;5130437;27;20051;-69
2024/01/14 11:30:46;;;;;;;5.43;2.72;;;;;;;;;;5130448;27;20039;-72
2024/01/14 11:33:31;;;;;;;5.47;3.10;;;;;;;;;;5130412;27;20142;-68
2024/01/14 11:36:00;;;;;;;7.53;3.15;;;;;;;;;;5130287;27;20049;-69
2024/01/14 11:38:34;;;;;;;5.88;3.10;;;;;;;;;;5130612;27;20047;-69
2024/01/14 11:41:26;;;;;;;7.10;3.53;;;;;;;;;;5129807;27;20081;-71
2024/01/14 11:43:58;;;;;;;7.30;3.45;;;;;;;;;;5129834;27;20039;-69
2024/01/14 11:46:41;;;;;;;6.53;3.33;;;;;;;;;;5111568;27;20131;-70
2024/01/14 11:49:17;;;;;;;6.45;3.45;;;;;;;;;;5129832;27;20130;-70
2024/01/14 11:51:54;;;;;;;7.15;3.47;;;;;;;;;;5130248;27;20043;-70
2024/01/14 11:54:22;;;;;;;6.22;2.97;;;;;;;;;;5129662;27;20047;-69
2024/01/14 11:56:49;;;;;;;6.68;3.30;;;;;;;;;;5129588;27;20108;-70
2024/01/14 11:59:17;;;;;;;9.50;4.10;;;;;;;;;;5130027;27;20039;-70
2024/01/14 12:02:13;;;;;;;8.65;4.07;;;;;;;;;;5129920;27;20105;-70
2024/01/14 12:04:40;;;;;;;9.02;4.20;;;;;;;;;;5129959;27;20043;-70
2024/01/14 12:07:07;;;;;;;8.55;4.55;;;;;;;;;;5129380;27;20051;-70
2024/01/14 12:09:34;;;;;;;9.27;4.70;;;;;;;;;;5129055;28;20047;-70
2024/01/14 12:12:07;;;;;;;9.07;4.78;;;;;;;;;;5129914;28;20055;-69
2024/01/14 12:14:37;;;;;;;12.77;5.95;;;;;;;;;;5129917;28;20043;-71
2024/01/14 12:17:10;;;;;;;9.73;5.13;;;;;;;;;;5129771;28;20043;-71
2024/01/14 12:19:37;;;;;;;9.20;4.70;;;;;;;;;;5129561;28;20051;-71
2024/01/14 12:22:04;;;;;;;9.23;5.00;;;;;;;;;;5129567;28;20403;-70
2024/01/14 12:24:32;;;;;;;9.35;4.20;;;;;;;;;;5129275;28;20047;-71
2024/01/14 12:26:59;;;;;;;9.13;4.65;;;;;;;;;;5129495;28;20679;-70
2024/01/14 12:29:30;;;;;;;7.53;4.20;;;;;;;;;;5111368;28;20050;-70
2024/01/14 12:31:58;;;;;;;6.75;3.97;;;;;;;;;;5129526;28;20047;-71
2024/01/14 12:34:25;;;;;;;9.60;5.60;;;;;;;;;;5129928;28;20047;-71
2024/01/14 12:36:52;;;;;;;8.52;4.82;;;;;;;;;;5129520;28;20043;-70
2024/01/14 12:39:20;;;;;;;10.80;5.55;;;;;;;;;;5128934;28;20043;-70
2024/01/14 12:41:48;;;;;;;11.75;5.53;;;;;;;;;;5129355;28;20054;-70
2024/01/14 12:44:22;;;;;;;10.82;6.13;;;;;;;;;;5129348;27;20043;-70
2024/01/14 12:46:52;;;;;;;11.85;6.05;;;;;;;;;;5129132;28;20043;-69
2024/01/14 12:49:24;;;;;;;9.93;5.03;;;;;;;;;;5111896;28;20051;-70
2024/01/14 12:52:03;;;;;;;9.55;4.97;;;;;;;;;;5129446;27;20049;-71
2024/01/14 12:54:31;;;;;;;8.00;4.35;;;;;;;;;;5128970;28;20107;-69
2024/01/14 12:57:17;;;;;;;7.40;4.50;;;;;;;;;;5129121;28;20077;-69
2024/01/14 12:59:50;;;;;;;6.70;4.15;;;;;;;;;;5129596;28;20043;-71
2024/01/14 13:02:17;;;;;;;6.82;4.20;;;;;;;;;;5128961;27;20043;-69
2024/01/14 13:04:44;;;;;;;6.95;4.30;;;;;;;;;;5129326;28;20043;-69
2024/01/14 13:07:11;;;;;;;7.05;4.90;;;;;;;;;;5131914;27;20130;-71
2024/01/14 13:09:40;;;;;;;8.43;4.93;;;;;;;;;;5132502;27;20051;-71
2024/01/14 13:12:07;;;;;;;7.95;4.90;;;;;;;;;;5133442;27;20142;-71
2024/01/14 13:14:34;;;;;;;8.82;4.80;;;;;;;;;;5133292;27;20047;-71
2024/01/14 13:17:01;;;;;;;7.18;4.78;;;;;;;;;;5132522;27;20051;-71
2024/01/14 13:19:28;;;;;;;9.10;4.82;;;;;;;;;;5132564;27;20414;-70
2024/01/14 13:21:55;;;;;;;10.23;5.85;;;;;;;;;;5132708;27;20143;-70
2024/01/14 13:24:22;;;;;;;10.52;5.85;;;;;;;;;;5132338;27;20536;-70
2024/01/14 13:26:50;;;;;;;11.73;5.78;;;;;;;;;;5132398;27;20536;-70
2024/01/14 13:29:18;;;;;;;9.55;5.45;;;;;;;;;;5132921;27;20066;-71
2024/01/14 13:31:45;;;;;;;8.55;5.13;;;;;;;;;;5132594;27;20557;-69
2024/01/14 13:34:13;;;;;;;8.98;5.13;;;;;;;;;;5132759;27;20043;-69
2024/01/14 13:36:40;;;;;;;6.63;4.50;;;;;;;;;;5132061;27;20051;-71
2024/01/14 13:39:07;;;;;;;7.95;4.20;;;;;;;;;;5131915;27;20407;-70
2024/01/14 13:41:34;;;;;;;7.10;3.58;;;;;;;;;;5132446;27;20126;-70
2024/01/14 13:44:01;;;;;;;6.50;3.80;;;;;;;;;;5132447;27;20047;-70
2024/01/14 13:46:43;;;;;;;5.97;3.40;;;;;;;;;;5132025;27;20089;-70
2024/01/14 13:49:10;;;;;;;5.75;3.58;;;;;;;;;;5132441;27;20096;-70
2024/01/14 13:51:40;;;;;;;6.13;3.78;;;;;;;;;;5132280;27;20108;-70
2024/01/14 13:54:07;;;;;;;7.10;3.63;;;;;;;;;;5131940;27;20062;-70
2024/01/14 13:56:40;;;;;;;6.95;3.50;;;;;;;;;;5131823;27;20284;-70
2024/01/14 13:59:08;;;;;;;7.68;3.95;;;;;;;;;;5132057;27;20081;-70
2024/01/14 14:01:37;;;;;;;7.38;3.97;;;;;;;;;;5131862;27;20146;-70
2024/01/14 14:04:05;;;;;;;7.38;4.15;;;;;;;;;;5132284;27;20043;-70
2024/01/14 14:06:35;;;;;;;7.65;4.20;;;;;;;;;;5131987;27;20130;-70
2024/01/14 14:09:06;;;;;;;6.05;3.80;;;;;;;;;;5131682;27;20122;-69
2024/01/14 14:11:34;;;;;;;6.80;3.78;;;;;;;;;;5131815;27;20047;-71
2024/01/14 14:14:01;;;;;;;7.72;3.80;;;;;;;;;;5131618;27;20058;-70
2024/01/14 14:16:28;;;;;;;6.90;3.72;;;;;;;;;;5131677;27;20062;-70
2024/01/14 14:19:07;;;;;;;5.60;3.33;;;;;;;;;;5131680;27;20067;-70
2024/01/14 14:21:35;;;;;;;6.07;3.72;;;;;;;;;;5131730;27;20118;-69
2024/01/14 14:24:22;;;;;;;6.07;3.55;;;;;;;;;;5131239;27;20039;-71
2024/01/14 14:26:49;;;;;;;6.78;3.80;;;;;;;;;;5131412;27;20079;-69
2024/01/14 14:29:16;;;;;;;8.02;3.65;;;;;;;;;;5131184;27;20045;-69
2024/01/14 14:31:46;;;;;;;10.23;4.93;;;;;;;;;;5131629;27;20054;-69
2024/01/14 14:34:17;;;;;;;7.85;4.38;;;;;;;;;;5131173;27;20047;-70
2024/01/14 14:36:46;;;;;;;6.65;4.00;;;;;;;;;;5131447;27;20059;-69
2024/01/14 14:39:14;;;;;;;8.32;4.45;;;;;;;;;;5130804;27;20092;-69
2024/01/14 14:41:41;;;;;;;9.70;4.60;;;;;;;;;;5131232;27;20043;-69
2024/01/14 14:44:09;;;;;;;6.20;3.70;;;;;;;;;;5131415;27;20127;-69
2024/01/14 14:46:37;;;;;;;8.80;5.70;;;;;;;;;;5131367;27;20043;-69